Bering Titan — WDI6469 — position and weather

sailwx.info

Track history (hours):
 
Tides and Currents Weather Stations Pressure Air Temp Water Temp Dewpoint Dewpoint Depression Visibility Wind Speed Wind Dir Waves Ship Positions

Bering Titan

Owner: WESTERN TOWBOAT CO, Seattle, WA. More information available from US FCC via Universal Licensing System and Coast Guard Vessel Documentation Center.

Last reported at 2018-Jun-19 14:00 UTC. Time now 2018-Jun-19 14:30 UTC.
Position N 47°39' W 122°27'.

Length 36 m; draft 3 m.

Type: Tug. MMSI: 367719020.

Date/timePositionNaut miles runAvg speedWind from/ knotsBaromVisibWave heightAir tempDewpointWater temp
2018-Jun-19 14:00N 47°39' W 122°27'3 6.3
2018-Jun-19 13:30N 47°42' W 122°28'3 6.8
2018-Jun-19 13:00N 47°45' W 122°27'3 6.3
2018-Jun-19 12:30N 47°48' W 122°27'4 7.7
2018-Jun-19 12:00N 47°52' W 122°29'4 7.6
2018-Jun-19 11:30N 47°55' W 122°32'7 7.0
2018-Jun-19 10:34N 48°00' W 122°38'1 6.4
2018-Jun-19 10:25N 48°01' W 122°39'17 6.9
2018-Jun-19 07:56N 48°17' W 122°48'510.2
2018-Jun-19 07:29N 48°22' W 122°46'5 9.6
2018-Jun-19 07:00N 48°26' W 122°45'5 9.3
2018-Jun-19 06:30N 48°31' W 122°45'4 8.8
2018-Jun-19 06:00N 48°35' W 122°46'4 8.2
2018-Jun-19 05:30N 48°39' W 122°44'4 7.6
2018-Jun-19 05:00N 48°43' W 122°45'10 9.5
2018-Jun-19 03:57N 48°49' W 122°57'10 9.4
2018-Jun-19 02:50N 48°55' W 123°10'310.4
2018-Jun-19 02:30N 48°58' W 123°14'6 9.8
2018-Jun-19 01:53N 49°01' W 123°21'3010.7
2018-Jun-18 23:07N 49°18' W 123°58'511.2
2018-Jun-18 22:38N 49°21' W 124°06'411.3
2018-Jun-18 22:19N 49°22' W 124°10'611.1
2018-Jun-18 21:46N 49°25' W 124°18'411.2
2018-Jun-18 21:24N 49°27' W 124°24'410.8
2018-Jun-18 21:00N 49°30' W 124°29'510.9
2018-Jun-18 20:30N 49°34' W 124°34'510.8
2018-Jun-18 20:00N 49°39' W 124°40'510.7
2018-Jun-18 19:30N 49°43' W 124°45'510.0
2018-Jun-18 19:00N 49°46' W 124°51'510.0
2018-Jun-18 18:30N 49°50' W 124°56'4 8.1
2018-Jun-18 18:00N 49°53' W 125°00'510.6
2018-Jun-18 17:30N 49°56' W 125°06'5 9.9
2018-Jun-18 17:00N 49°60' W 125°12'510.5
2018-Jun-18 16:30N 50°04' W 125°15'611.1
2018-Jun-18 16:00N 50°08' W 125°21'610.8
2018-Jun-18 15:30N 50°14' W 125°23'5 8.5
2018-Jun-18 14:58N 50°18' W 125°25'5410.0
2018-Jun-18 09:32N 50°37' W 126°45'1 8.4
2018-Jun-18 09:28N 50°37' W 126°46'810.3
2018-Jun-18 08:44N 50°42' W 126°55'3 9.9
2018-Jun-18 08:26N 50°43' W 126°59'510.0
2018-Jun-18 07:58N 50°45' W 127°06'510.3
2018-Jun-18 07:29N 50°48' W 127°12'510.2
2018-Jun-18 07:00N 50°51' W 127°18'4 8.4
2018-Jun-18 06:30N 50°54' W 127°23'5 9.1
2018-Jun-18 06:00N 50°57' W 127°28'4 9.1
2018-Jun-18 05:30N 50°59' W 127°35'5 9.3
2018-Jun-18 05:00N 51°03' W 127°39'5 9.9
2018-Jun-18 04:30N 51°06' W 127°45'5 9.5
2018-Jun-18 03:59N 51°10' W 127°51'510.5
2018-Jun-18 03:30N 51°15' W 127°53'510.7
2018-Jun-18 03:00N 51°19' W 127°57'510.6
2018-Jun-18 02:30N 51°24' W 128°01'510.3
2018-Jun-18 02:00N 51°27' W 128°08'510.2
2018-Jun-18 01:30N 51°30' W 128°15'611.3
2018-Jun-18 01:00N 51°34' W 128°20'611.3
2018-Jun-18 00:30N 51°40' W 128°23'511.0
2018-Jun-18 00:00N 51°45' W 128°27'510.7
2018-Jun-17 23:30N 51°49' W 128°32'510.5
2018-Jun-17 23:01N 51°54' W 128°34'510.6
2018-Jun-17 22:30N 51°59' W 128°37'510.5
2018-Jun-17 22:01N 52°04' W 128°40'510.6
2018-Jun-17 21:30N 52°09' W 128°43'510.4
2018-Jun-17 21:00N 52°14' W 128°46'510.2
2018-Jun-17 20:29N 52°19' W 128°48'510.1
2018-Jun-17 20:00N 52°24' W 128°50'8111.1
2018-Jun-17 12:41N 53°31' W 130°06'211.4
2018-Jun-17 12:30N 53°32' W 130°09'611.1
2018-Jun-17 12:00N 53°35' W 130°17'510.4
2018-Jun-17 11:30N 53°38' W 130°24'510.7
2018-Jun-17 11:00N 53°41' W 130°31'510.5
2018-Jun-17 10:30N 53°45' W 130°38'510.3
2018-Jun-17 10:00N 53°48' W 130°45'510.0
2018-Jun-17 09:30N 53°51' W 130°51'510.2
2018-Jun-17 09:00N 53°55' W 130°57'510.1
2018-Jun-17 08:30N 53°60' W 130°59'611.0
2018-Jun-17 08:00N 54°05' W 130°60'510.9
2018-Jun-17 07:30N 54°10' W 131°01'611.3
2018-Jun-17 07:00N 54°16' W 131°03'510.8
2018-Jun-17 06:30N 54°21' W 131°05'510.5
2018-Jun-17 06:00N 54°26' W 131°10'5 9.8
2018-Jun-17 05:30N 54°30' W 131°15'128 7.3
2018-Jun-16 12:00N 56°00' W 133°54'25 8.2 260 / 71024.110.8 9.2 11.6
2018-Jun-16 09:00N 56°18' W 134°24'9110.1 330 / 31027.110.8 10.4
2018-Jun-16 00:00N 57°48' W 134°48'37 9.9 1023.810.8 14.9 11.0
2018-Jun-15 20:14N 58°15' W 135°36'210.4
2018-Jun-15 20:00N 58°17' W 135°40'612.3
2018-Jun-15 19:30N 58°18' W 135°51'612.7
2018-Jun-15 19:00N 58°15' W 136°03'611.3
2018-Jun-15 18:30N 58°16' W 136°13'53 8.1
2018-Jun-15 12:00N 58°18' W 137°54'3712.2 270 / 101021.110.8 11.3 12.1
2018-Jun-15 09:00N 58°30' W 139°00'86 9.6 270 / 61021.3 10.9
2018-Jun-15 00:00N 59°00' W 141°36'12010.0 290 / 101016.410.8 13.1 10.0
2018-Jun-14 12:00N 59°48' W 145°12'   320 / 101011.610.8 10.5 14.4
2018-Jun-11 12:00N 60°00' W 145°42'3411.3 220 / 201011.0 5.4 9.0 11.1
2018-Jun-11 09:00N 59°36' W 144°54'78 8.7 260 / 151013.3 9.4
2018-Jun-11 00:00N 58°48' W 142°54'102 8.5 270 / 101012.6 5.4 9.9 11.1
2018-Jun-10 12:00N 57°48' W 140°18'29 9.6 290 / 91010.3 5.4 8.9 12.8
2018-Jun-10 09:00N 57°30' W 139°36'76 8.4 290 / 201012.910.8 9.3
2018-Jun-10 00:00N 56°42' W 137°48'1414.5 300 / 61013.027.0 10.9 13.9
2018-Jun-09 23:00N 56°36' W 137°24'   300 / 51013.027.0 11.3 14.9
Track history (hours):
 
Tides and Currents Weather Stations Pressure Air Temp Water Temp Dewpoint Dewpoint Depression Visibility Wind Speed Wind Dir Waves Ship Positions

Bering Titan

Owner: WESTERN TOWBOAT CO, Seattle, WA. More information available from US FCC via Universal Licensing System and Coast Guard Vessel Documentation Center.

Last reported at 2018-Jun-19 14:00 UTC. Time now 2018-Jun-19 14:30 UTC.
Position N 47°39' W 122°27'.

Length 36 m; draft 3 m.

Type: Tug. MMSI: 367719020.

Date/timePositionNaut miles runAvg speedWind from/ knotsBaromVisibWave heightAir tempDewpointWater temp
2018-Jun-19 14:00N 47°39' W 122°27'3 6.3
2018-Jun-19 13:30N 47°42' W 122°28'3 6.8
2018-Jun-19 13:00N 47°45' W 122°27'3 6.3
2018-Jun-19 12:30N 47°48' W 122°27'4 7.7
2018-Jun-19 12:00N 47°52' W 122°29'4 7.6
2018-Jun-19 11:30N 47°55' W 122°32'7 7.0
2018-Jun-19 10:34N 48°00' W 122°38'1 6.4
2018-Jun-19 10:25N 48°01' W 122°39'17 6.9
2018-Jun-19 07:56N 48°17' W 122°48'510.2
2018-Jun-19 07:29N 48°22' W 122°46'5 9.6
2018-Jun-19 07:00N 48°26' W 122°45'5 9.3
2018-Jun-19 06:30N 48°31' W 122°45'4 8.8
2018-Jun-19 06:00N 48°35' W 122°46'4 8.2
2018-Jun-19 05:30N 48°39' W 122°44'4 7.6
2018-Jun-19 05:00N 48°43' W 122°45'10 9.5
2018-Jun-19 03:57N 48°49' W 122°57'10 9.4
2018-Jun-19 02:50N 48°55' W 123°10'310.4
2018-Jun-19 02:30N 48°58' W 123°14'6 9.8
2018-Jun-19 01:53N 49°01' W 123°21'3010.7
2018-Jun-18 23:07N 49°18' W 123°58'511.2
2018-Jun-18 22:38N 49°21' W 124°06'411.3
2018-Jun-18 22:19N 49°22' W 124°10'611.1
2018-Jun-18 21:46N 49°25' W 124°18'411.2
2018-Jun-18 21:24N 49°27' W 124°24'410.8
2018-Jun-18 21:00N 49°30' W 124°29'510.9
2018-Jun-18 20:30N 49°34' W 124°34'510.8
2018-Jun-18 20:00N 49°39' W 124°40'510.7
2018-Jun-18 19:30N 49°43' W 124°45'510.0
2018-Jun-18 19:00N 49°46' W 124°51'510.0
2018-Jun-18 18:30N 49°50' W 124°56'4 8.1
2018-Jun-18 18:00N 49°53' W 125°00'510.6
2018-Jun-18 17:30N 49°56' W 125°06'5 9.9
2018-Jun-18 17:00N 49°60' W 125°12'510.5
2018-Jun-18 16:30N 50°04' W 125°15'611.1
2018-Jun-18 16:00N 50°08' W 125°21'610.8
2018-Jun-18 15:30N 50°14' W 125°23'5 8.5
2018-Jun-18 14:58N 50°18' W 125°25'5410.0
2018-Jun-18 09:32N 50°37' W 126°45'1 8.4
2018-Jun-18 09:28N 50°37' W 126°46'810.3
2018-Jun-18 08:44N 50°42' W 126°55'3 9.9
2018-Jun-18 08:26N 50°43' W 126°59'510.0
2018-Jun-18 07:58N 50°45' W 127°06'510.3
2018-Jun-18 07:29N 50°48' W 127°12'510.2
2018-Jun-18 07:00N 50°51' W 127°18'4 8.4
2018-Jun-18 06:30N 50°54' W 127°23'5 9.1
2018-Jun-18 06:00N 50°57' W 127°28'4 9.1
2018-Jun-18 05:30N 50°59' W 127°35'5 9.3
2018-Jun-18 05:00N 51°03' W 127°39'5 9.9
2018-Jun-18 04:30N 51°06' W 127°45'5 9.5
2018-Jun-18 03:59N 51°10' W 127°51'510.5
2018-Jun-18 03:30N 51°15' W 127°53'510.7
2018-Jun-18 03:00N 51°19' W 127°57'510.6
2018-Jun-18 02:30N 51°24' W 128°01'510.3
2018-Jun-18 02:00N 51°27' W 128°08'510.2
2018-Jun-18 01:30N 51°30' W 128°15'611.3
2018-Jun-18 01:00N 51°34' W 128°20'611.3
2018-Jun-18 00:30N 51°40' W 128°23'511.0
2018-Jun-18 00:00N 51°45' W 128°27'510.7
2018-Jun-17 23:30N 51°49' W 128°32'510.5
2018-Jun-17 23:01N 51°54' W 128°34'510.6
2018-Jun-17 22:30N 51°59' W 128°37'510.5
2018-Jun-17 22:01N 52°04' W 128°40'510.6
2018-Jun-17 21:30N 52°09' W 128°43'510.4
2018-Jun-17 21:00N 52°14' W 128°46'510.2
2018-Jun-17 20:29N 52°19' W 128°48'510.1
2018-Jun-17 20:00N 52°24' W 128°50'8111.1
2018-Jun-17 12:41N 53°31' W 130°06'211.4
2018-Jun-17 12:30N 53°32' W 130°09'611.1
2018-Jun-17 12:00N 53°35' W 130°17'510.4
2018-Jun-17 11:30N 53°38' W 130°24'510.7
2018-Jun-17 11:00N 53°41' W 130°31'510.5
2018-Jun-17 10:30N 53°45' W 130°38'510.3
2018-Jun-17 10:00N 53°48' W 130°45'510.0
2018-Jun-17 09:30N 53°51' W 130°51'510.2
2018-Jun-17 09:00N 53°55' W 130°57'510.1
2018-Jun-17 08:30N 53°60' W 130°59'611.0
2018-Jun-17 08:00N 54°05' W 130°60'510.9
2018-Jun-17 07:30N 54°10' W 131°01'611.3
2018-Jun-17 07:00N 54°16' W 131°03'510.8
2018-Jun-17 06:30N 54°21' W 131°05'510.5
2018-Jun-17 06:00N 54°26' W 131°10'5 9.8
2018-Jun-17 05:30N 54°30' W 131°15'128 7.3
2018-Jun-16 12:00N 56°00' W 133°54'25 8.2 260 / 71024.110.8 9.2 11.6
2018-Jun-16 09:00N 56°18' W 134°24'9110.1 330 / 31027.110.8 10.4
2018-Jun-16 00:00N 57°48' W 134°48'37 9.9 1023.810.8 14.9 11.0
2018-Jun-15 20:14N 58°15' W 135°36'210.4
2018-Jun-15 20:00N 58°17' W 135°40'612.3
2018-Jun-15 19:30N 58°18' W 135°51'612.7
2018-Jun-15 19:00N 58°15' W 136°03'611.3
2018-Jun-15 18:30N 58°16' W 136°13'53 8.1
2018-Jun-15 12:00N 58°18' W 137°54'3712.2 270 / 101021.110.8 11.3 12.1
2018-Jun-15 09:00N 58°30' W 139°00'86 9.6 270 / 61021.3 10.9
2018-Jun-15 00:00N 59°00' W 141°36'12010.0 290 / 101016.410.8 13.1 10.0
2018-Jun-14 12:00N 59°48' W 145°12'   320 / 101011.610.8 10.5 14.4
2018-Jun-11 12:00N 60°00' W 145°42'3411.3 220 / 201011.0 5.4 9.0 11.1
2018-Jun-11 09:00N 59°36' W 144°54'78 8.7 260 / 151013.3 9.4
2018-Jun-11 00:00N 58°48' W 142°54'102 8.5 270 / 101012.6 5.4 9.9 11.1
2018-Jun-10 12:00N 57°48' W 140°18'29 9.6 290 / 91010.3 5.4 8.9 12.8
2018-Jun-10 09:00N 57°30' W 139°36'76 8.4 290 / 201012.910.8 9.3
2018-Jun-10 00:00N 56°42' W 137°48'1414.5 300 / 61013.027.0 10.9 13.9
2018-Jun-09 23:00N 56°36' W 137°24'   300 / 51013.027.0 11.3 14.9

Dump ship's entire track history